sensor_id;sensor_type;location;lat;lon;timestamp;temperature;humidity
1205;DHT22;592;48.764;9.174;2023-06-19T00:00:33;24.20;91.10
1205;DHT22;592;48.764;9.174;2023-06-19T00:03:00;24.00;91.60
1205;DHT22;592;48.764;9.174;2023-06-19T00:05:28;24.10;90.90
1205;DHT22;592;48.764;9.174;2023-06-19T00:07:55;24.10;90.90
1205;DHT22;592;48.764;9.174;2023-06-19T00:10:22;24.20;91.00
1205;DHT22;592;48.764;9.174;2023-06-19T00:12:51;24.10;90.70
1205;DHT22;592;48.764;9.174;2023-06-19T00:15:18;23.70;90.50
1205;DHT22;592;48.764;9.174;2023-06-19T00:17:46;24.00;91.20
1205;DHT22;592;48.764;9.174;2023-06-19T00:20:13;24.10;90.80
1205;DHT22;592;48.764;9.174;2023-06-19T00:22:40;24.10;91.00
1205;DHT22;592;48.764;9.174;2023-06-19T00:25:07;23.60;90.60
1205;DHT22;592;48.764;9.174;2023-06-19T00:27:34;24.10;90.70
1205;DHT22;592;48.764;9.174;2023-06-19T00:30:04;24.20;90.80
1205;DHT22;592;48.764;9.174;2023-06-19T00:32:31;24.30;90.60
1205;DHT22;592;48.764;9.174;2023-06-19T00:35:14;24.20;90.90
1205;DHT22;592;48.764;9.174;2023-06-19T00:37:41;24.20;90.90
1205;DHT22;592;48.764;9.174;2023-06-19T00:40:12;24.10;90.90
1205;DHT22;592;48.764;9.174;2023-06-19T00:42:43;24.20;90.80
1205;DHT22;592;48.764;9.174;2023-06-19T00:45:10;24.10;91.00
1205;DHT22;592;48.764;9.174;2023-06-19T00:47:37;24.10;90.60
1205;DHT22;592;48.764;9.174;2023-06-19T00:50:05;24.20;90.40
1205;DHT22;592;48.764;9.174;2023-06-19T00:52:34;24.00;91.10
1205;DHT22;592;48.764;9.174;2023-06-19T00:55:01;23.90;91.50
1205;DHT22;592;48.764;9.174;2023-06-19T00:57:29;23.70;91.90
1205;DHT22;592;48.764;9.174;2023-06-19T00:59:57;23.90;91.40
1205;DHT22;592;48.764;9.174;2023-06-19T01:02:24;24.00;90.90
1205;DHT22;592;48.764;9.174;2023-06-19T01:04:51;24.00;91.00
1205;DHT22;592;48.764;9.174;2023-06-19T01:07:22;24.10;90.60
1205;DHT22;592;48.764;9.174;2023-06-19T01:09:53;24.10;90.90
1205;DHT22;592;48.764;9.174;2023-06-19T01:12:28;24.20;90.60
1205;DHT22;592;48.764;9.174;2023-06-19T01:14:59;25.70;91.30
1205;DHT22;592;48.764;9.174;2023-06-19T01:17:26;24.60;92.80
1205;DHT22;592;48.764;9.174;2023-06-19T01:19:54;22.90;92.50
1205;DHT22;592;48.764;9.174;2023-06-19T01:22:26;23.10;92.50
1205;DHT22;592;48.764;9.174;2023-06-19T01:24:53;23.20;92.00
1205;DHT22;592;48.764;9.174;2023-06-19T01:27:20;23.40;91.90
1205;DHT22;592;48.764;9.174;2023-06-19T01:29:47;23.30;91.90
1205;DHT22;592;48.764;9.174;2023-06-19T01:32:18;23.30;92.00
1205;DHT22;592;48.764;9.174;2023-06-19T01:34:47;23.30;92.00
1205;DHT22;592;48.764;9.174;2023-06-19T01:37:14;23.30;92.10
1205;DHT22;592;48.764;9.174;2023-06-19T01:39:45;23.20;91.90
1205;DHT22;592;48.764;9.174;2023-06-19T01:42:12;23.30;92.20
1205;DHT22;592;48.764;9.174;2023-06-19T01:44:39;23.30;92.20
1205;DHT22;592;48.764;9.174;2023-06-19T01:47:10;23.30;92.30
1205;DHT22;592;48.764;9.174;2023-06-19T01:49:38;23.30;92.50
1205;DHT22;592;48.764;9.174;2023-06-19T01:52:06;23.20;93.00
1205;DHT22;592;48.764;9.174;2023-06-19T01:54:33;23.20;93.10
1205;DHT22;592;48.764;9.174;2023-06-19T01:57:02;23.10;93.50
1205;DHT22;592;48.764;9.174;2023-06-19T01:59:29;23.00;93.60
1205;DHT22;592;48.764;9.174;2023-06-19T02:01:56;23.20;93.70
1205;DHT22;592;48.764;9.174;2023-06-19T02:04:22;23.20;93.20
1205;DHT22;592;48.764;9.174;2023-06-19T02:06:49;23.10;94.20
1205;DHT22;592;48.764;9.174;2023-06-19T02:09:16;23.00;94.00
1205;DHT22;592;48.764;9.174;2023-06-19T02:11:43;22.90;94.00
1205;DHT22;592;48.764;9.174;2023-06-19T02:14:11;23.00;93.70
1205;DHT22;592;48.764;9.174;2023-06-19T02:16:38;23.00;94.10
1205;DHT22;592;48.764;9.174;2023-06-19T02:19:05;23.10;93.80
1205;DHT22;592;48.764;9.174;2023-06-19T02:21:32;23.10;94.10
1205;DHT22;592;48.764;9.174;2023-06-19T02:23:59;22.90;94.10
1205;DHT22;592;48.764;9.174;2023-06-19T02:26:27;23.00;94.00
1205;DHT22;592;48.764;9.174;2023-06-19T02:28:54;23.00;94.40
1205;DHT22;592;48.764;9.174;2023-06-19T02:31:23;23.10;94.60
1205;DHT22;592;48.764;9.174;2023-06-19T02:33:50;23.00;94.50
1205;DHT22;592;48.764;9.174;2023-06-19T02:36:16;23.00;94.50
1205;DHT22;592;48.764;9.174;2023-06-19T02:38:45;22.70;95.00
1205;DHT22;592;48.764;9.174;2023-06-19T02:41:12;22.90;95.20
1205;DHT22;592;48.764;9.174;2023-06-19T02:43:39;22.80;95.50
1205;DHT22;592;48.764;9.174;2023-06-19T02:46:06;22.90;95.20
1205;DHT22;592;48.764;9.174;2023-06-19T02:48:35;22.90;95.30
1205;DHT22;592;48.764;9.174;2023-06-19T02:51:03;23.00;95.30
1205;DHT22;592;48.764;9.174;2023-06-19T02:53:30;23.00;95.00
1205;DHT22;592;48.764;9.174;2023-06-19T02:55:57;23.00;95.30
1205;DHT22;592;48.764;9.174;2023-06-19T02:58:26;22.80;95.40
1205;DHT22;592;48.764;9.174;2023-06-19T03:00:53;22.80;95.60
1205;DHT22;592;48.764;9.174;2023-06-19T03:03:20;22.40;95.20
1205;DHT22;592;48.764;9.174;2023-06-19T03:05:51;23.00;95.50
1205;DHT22;592;48.764;9.174;2023-06-19T03:08:18;22.90;95.50
1205;DHT22;592;48.764;9.174;2023-06-19T03:10:45;22.80;95.70
1205;DHT22;592;48.764;9.174;2023-06-19T03:13:13;22.80;95.80
1205;DHT22;592;48.764;9.174;2023-06-19T03:15:39;22.60;95.50
1205;DHT22;592;48.764;9.174;2023-06-19T03:18:07;22.80;95.70
1205;DHT22;592;48.764;9.174;2023-06-19T03:20:36;22.80;95.60
1205;DHT22;592;48.764;9.174;2023-06-19T03:23:04;22.80;95.80
1205;DHT22;592;48.764;9.174;2023-06-19T03:25:31;23.80;96.50
1205;DHT22;592;48.764;9.174;2023-06-19T03:28:00;22.60;96.20
1205;DHT22;592;48.764;9.174;2023-06-19T03:30:27;22.60;96.30
1205;DHT22;592;48.764;9.174;2023-06-19T03:32:54;23.60;96.70
1205;DHT22;592;48.764;9.174;2023-06-19T03:35:20;22.70;96.40
1205;DHT22;592;48.764;9.174;2023-06-19T03:37:47;22.60;96.40
1205;DHT22;592;48.764;9.174;2023-06-19T03:40:16;22.60;96.40
1205;DHT22;592;48.764;9.174;2023-06-19T03:42:43;22.50;96.80
1205;DHT22;592;48.764;9.174;2023-06-19T03:45:11;22.50;97.50
1205;DHT22;592;48.764;9.174;2023-06-19T03:47:37;22.30;97.30
1205;DHT22;592;48.764;9.174;2023-06-19T03:50:06;22.30;97.60
1205;DHT22;592;48.764;9.174;2023-06-19T03:52:35;22.20;97.80
1205;DHT22;592;48.764;9.174;2023-06-19T03:55:02;22.10;98.40
1205;DHT22;592;48.764;9.174;2023-06-19T03:57:33;22.00;98.80
1205;DHT22;592;48.764;9.174;2023-06-19T04:00:00;21.90;98.70
1205;DHT22;592;48.764;9.174;2023-06-19T04:02:26;21.90;98.70
1205;DHT22;592;48.764;9.174;2023-06-19T04:04:53;21.80;98.90
1205;DHT22;592;48.764;9.174;2023-06-19T04:07:20;21.70;98.60
1205;DHT22;592;48.764;9.174;2023-06-19T04:09:47;21.90;98.70
1205;DHT22;592;48.764;9.174;2023-06-19T04:12:13;21.70;99.10
1205;DHT22;592;48.764;9.174;2023-06-19T04:14:41;21.70;99.30
1205;DHT22;592;48.764;9.174;2023-06-19T04:17:08;21.80;99.80
1205;DHT22;592;48.764;9.174;2023-06-19T04:19:35;21.60;99.30
1205;DHT22;592;48.764;9.174;2023-06-19T04:22:02;21.50;99.90
1205;DHT22;592;48.764;9.174;2023-06-19T04:24:28;21.60;99.90
1205;DHT22;592;48.764;9.174;2023-06-19T04:26:55;21.70;99.90
1205;DHT22;592;48.764;9.174;2023-06-19T04:29:22;21.50;99.80
1205;DHT22;592;48.764;9.174;2023-06-19T04:31:50;21.60;99.90
1205;DHT22;592;48.764;9.174;2023-06-19T04:34:18;21.70;99.80
1205;DHT22;592;48.764;9.174;2023-06-19T04:36:46;21.60;99.90
1205;DHT22;592;48.764;9.174;2023-06-19T04:39:13;21.10;99.90
1205;DHT22;592;48.764;9.174;2023-06-19T04:41:40;21.70;99.70
1205;DHT22;592;48.764;9.174;2023-06-19T04:44:09;21.70;99.80
1205;DHT22;592;48.764;9.174;2023-06-19T04:46:37;21.80;99.40
1205;DHT22;592;48.764;9.174;2023-06-19T04:49:06;21.90;99.90
1205;DHT22;592;48.764;9.174;2023-06-19T04:51:34;22.20;99.60
1205;DHT22;592;48.764;9.174;2023-06-19T04:54:02;21.90;99.90
1205;DHT22;592;48.764;9.174;2023-06-19T04:56:30;23.00;99.90
1205;DHT22;592;48.764;9.174;2023-06-19T04:58:57;22.10;99.70
1205;DHT22;592;48.764;9.174;2023-06-19T05:01:27;22.10;99.60
1205;DHT22;592;48.764;9.174;2023-06-19T05:03:55;22.10;99.90
1205;DHT22;592;48.764;9.174;2023-06-19T05:06:26;22.30;99.60
1205;DHT22;592;48.764;9.174;2023-06-19T05:08:52;22.00;99.80
1205;DHT22;592;48.764;9.174;2023-06-19T05:11:19;22.30;99.90
1205;DHT22;592;48.764;9.174;2023-06-19T05:13:46;23.50;99.90
1205;DHT22;592;48.764;9.174;2023-06-19T05:16:13;23.80;99.90
1205;DHT22;592;48.764;9.174;2023-06-19T05:18:42;22.50;99.70
1205;DHT22;592;48.764;9.174;2023-06-19T05:21:10;22.20;99.90
1205;DHT22;592;48.764;9.174;2023-06-19T05:23:38;22.30;99.90
1205;DHT22;592;48.764;9.174;2023-06-19T05:26:05;22.40;99.70
1205;DHT22;592;48.764;9.174;2023-06-19T05:28:32;22.40;99.90
1205;DHT22;592;48.764;9.174;2023-06-19T05:31:01;22.30;99.90
1205;DHT22;592;48.764;9.174;2023-06-19T05:33:30;22.30;99.90
1205;DHT22;592;48.764;9.174;2023-06-19T05:35:57;22.30;99.90
1205;DHT22;592;48.764;9.174;2023-06-19T05:38:26;22.20;99.90
1205;DHT22;592;48.764;9.174;2023-06-19T05:40:57;22.30;99.90
1205;DHT22;592;48.764;9.174;2023-06-19T05:43:23;22.30;99.90
1205;DHT22;592;48.764;9.174;2023-06-19T05:45:53;22.20;99.90
1205;DHT22;592;48.764;9.174;2023-06-19T05:48:21;22.50;99.90
1205;DHT22;592;48.764;9.174;2023-06-19T05:50:48;22.20;99.90
1205;DHT22;592;48.764;9.174;2023-06-19T05:53:15;22.30;99.90
1205;DHT22;592;48.764;9.174;2023-06-19T05:55:42;22.50;99.90
1205;DHT22;592;48.764;9.174;2023-06-19T05:58:11;22.80;99.90
1205;DHT22;592;48.764;9.174;2023-06-19T06:00:37;22.70;99.90
1205;DHT22;592;48.764;9.174;2023-06-19T06:03:04;22.70;99.90
1205;DHT22;592;48.764;9.174;2023-06-19T06:05:31;24.00;99.90
1205;DHT22;592;48.764;9.174;2023-06-19T06:07:58;22.80;99.90
1205;DHT22;592;48.764;9.174;2023-06-19T06:10:25;22.70;99.90
1205;DHT22;592;48.764;9.174;2023-06-19T06:12:52;23.20;99.90
1205;DHT22;592;48.764;9.174;2023-06-19T06:15:21;23.00;99.90
1205;DHT22;592;48.764;9.174;2023-06-19T06:17:47;23.20;99.90
1205;DHT22;592;48.764;9.174;2023-06-19T06:20:14;23.50;99.90
1205;DHT22;592;48.764;9.174;2023-06-19T06:22:42;23.20;99.80
1205;DHT22;592;48.764;9.174;2023-06-19T06:25:09;23.30;99.70
1205;DHT22;592;48.764;9.174;2023-06-19T06:27:36;23.20;99.80
1205;DHT22;592;48.764;9.174;2023-06-19T06:30:06;23.40;99.80
1205;DHT22;592;48.764;9.174;2023-06-19T06:32:38;23.50;99.70
1205;DHT22;592;48.764;9.174;2023-06-19T06:35:06;24.20;99.90
1205;DHT22;592;48.764;9.174;2023-06-19T06:37:33;23.90;99.20
1205;DHT22;592;48.764;9.174;2023-06-19T06:39:59;25.80;99.70
1205;DHT22;592;48.764;9.174;2023-06-19T06:42:26;24.30;98.60
1205;DHT22;592;48.764;9.174;2023-06-19T06:44:53;24.20;98.40
1205;DHT22;592;48.764;9.174;2023-06-19T06:47:21;24.40;98.50
1205;DHT22;592;48.764;9.174;2023-06-19T06:49:49;24.60;98.60
1205;DHT22;592;48.764;9.174;2023-06-19T06:52:16;24.60;98.00
1205;DHT22;592;48.764;9.174;2023-06-19T06:54:45;24.70;97.60
1205;DHT22;592;48.764;9.174;2023-06-19T06:57:13;24.20;97.70
1205;DHT22;592;48.764;9.174;2023-06-19T06:59:42;24.00;97.70
1205;DHT22;592;48.764;9.174;2023-06-19T07:02:09;24.00;98.00
1205;DHT22;592;48.764;9.174;2023-06-19T07:04:36;24.20;98.30
1205;DHT22;592;48.764;9.174;2023-06-19T07:07:10;23.80;98.10
1205;DHT22;592;48.764;9.174;2023-06-19T07:09:37;23.90;98.10
1205;DHT22;592;48.764;9.174;2023-06-19T07:12:08;24.00;98.00
1205;DHT22;592;48.764;9.174;2023-06-19T07:14:39;24.50;98.00
1205;DHT22;592;48.764;9.174;2023-06-19T07:17:06;24.10;97.60
1205;DHT22;592;48.764;9.174;2023-06-19T07:19:33;24.10;97.50
1205;DHT22;592;48.764;9.174;2023-06-19T07:22:00;24.20;97.70
1205;DHT22;592;48.764;9.174;2023-06-19T07:24:28;24.00;97.60
1205;DHT22;592;48.764;9.174;2023-06-19T07:26:55;24.10;97.60
1205;DHT22;592;48.764;9.174;2023-06-19T07:29:22;24.20;97.40
1205;DHT22;592;48.764;9.174;2023-06-19T07:31:49;24.70;97.60
1205;DHT22;592;48.764;9.174;2023-06-19T07:34:15;24.90;96.80
1205;DHT22;592;48.764;9.174;2023-06-19T07:36:44;24.70;96.90
1205;DHT22;592;48.764;9.174;2023-06-19T07:39:12;24.80;96.50
1205;DHT22;592;48.764;9.174;2023-06-19T07:41:40;25.10;96.60
1205;DHT22;592;48.764;9.174;2023-06-19T07:44:08;25.40;96.20
1205;DHT22;592;48.764;9.174;2023-06-19T07:46:34;25.60;96.30
1205;DHT22;592;48.764;9.174;2023-06-19T07:49:01;26.90;96.80
1205;DHT22;592;48.764;9.174;2023-06-19T07:51:28;25.90;96.40
1205;DHT22;592;48.764;9.174;2023-06-19T07:53:55;25.60;95.50
1205;DHT22;592;48.764;9.174;2023-06-19T07:56:22;24.40;95.70
1205;DHT22;592;48.764;9.174;2023-06-19T07:58:52;24.90;96.20
1205;DHT22;592;48.764;9.174;2023-06-19T08:01:19;25.10;96.60
1205;DHT22;592;48.764;9.174;2023-06-19T08:03:46;25.60;96.50
1205;DHT22;592;48.764;9.174;2023-06-19T08:06:12;25.30;96.20
1205;DHT22;592;48.764;9.174;2023-06-19T08:08:39;25.50;96.70
1205;DHT22;592;48.764;9.174;2023-06-19T08:11:07;26.80;96.60
1205;DHT22;592;48.764;9.174;2023-06-19T08:13:35;25.30;96.30
1205;DHT22;592;48.764;9.174;2023-06-19T08:16:04;24.30;95.80
1205;DHT22;592;48.764;9.174;2023-06-19T08:18:31;25.10;96.30
1205;DHT22;592;48.764;9.174;2023-06-19T08:20:58;25.00;96.20
1205;DHT22;592;48.764;9.174;2023-06-19T08:23:26;25.00;96.50
1205;DHT22;592;48.764;9.174;2023-06-19T08:25:53;26.20;97.00
1205;DHT22;592;48.764;9.174;2023-06-19T08:28:20;25.20;95.90
1205;DHT22;592;48.764;9.174;2023-06-19T08:30:47;25.00;96.10
1205;DHT22;592;48.764;9.174;2023-06-19T08:33:16;25.00;96.30
1205;DHT22;592;48.764;9.174;2023-06-19T08:35:43;24.90;96.50
1205;DHT22;592;48.764;9.174;2023-06-19T08:38:09;24.60;96.50
1205;DHT22;592;48.764;9.174;2023-06-19T08:40:37;24.70;96.80
1205;DHT22;592;48.764;9.174;2023-06-19T08:43:04;25.00;96.80
1205;DHT22;592;48.764;9.174;2023-06-19T08:45:31;25.00;96.50
1205;DHT22;592;48.764;9.174;2023-06-19T08:47:58;25.00;96.50
1205;DHT22;592;48.764;9.174;2023-06-19T08:50:26;25.30;96.30
1205;DHT22;592;48.764;9.174;2023-06-19T08:52:55;25.50;96.50
1205;DHT22;592;48.764;9.174;2023-06-19T08:55:24;25.60;96.00
1205;DHT22;592;48.764;9.174;2023-06-19T08:57:52;25.50;95.90
1205;DHT22;592;48.764;9.174;2023-06-19T09:00:26;24.90;95.80
1205;DHT22;592;48.764;9.174;2023-06-19T09:03:00;25.80;95.90
1205;DHT22;592;48.764;9.174;2023-06-19T09:05:29;26.30;95.60
1205;DHT22;592;48.764;9.174;2023-06-19T09:07:57;26.20;94.80
1205;DHT22;592;48.764;9.174;2023-06-19T09:10:26;26.20;95.20
1205;DHT22;592;48.764;9.174;2023-06-19T09:12:59;26.30;94.40
1205;DHT22;592;48.764;9.174;2023-06-19T09:15:28;26.80;94.50
1205;DHT22;592;48.764;9.174;2023-06-19T09:18:03;27.10;93.70
1205;DHT22;592;48.764;9.174;2023-06-19T09:20:32;27.20;94.10
1205;DHT22;592;48.764;9.174;2023-06-19T09:22:59;27.20;93.70
1205;DHT22;592;48.764;9.174;2023-06-19T09:25:26;27.50;93.20
1205;DHT22;592;48.764;9.174;2023-06-19T09:27:53;27.40;93.20
1205;DHT22;592;48.764;9.174;2023-06-19T09:30:21;27.50;92.90
1205;DHT22;592;48.764;9.174;2023-06-19T09:32:48;27.30;92.80
1205;DHT22;592;48.764;9.174;2023-06-19T09:35:16;27.60;92.70
1205;DHT22;592;48.764;9.174;2023-06-19T09:37:48;28.00;92.60
1205;DHT22;592;48.764;9.174;2023-06-19T09:40:15;26.80;91.90
1205;DHT22;592;48.764;9.174;2023-06-19T09:42:43;27.90;92.40
1205;DHT22;592;48.764;9.174;2023-06-19T09:45:13;27.80;91.90
1205;DHT22;592;48.764;9.174;2023-06-19T09:47:43;27.50;92.20
1205;DHT22;592;48.764;9.174;2023-06-19T09:50:12;27.40;92.20
1205;DHT22;592;48.764;9.174;2023-06-19T09:52:39;27.10;92.80
1205;DHT22;592;48.764;9.174;2023-06-19T09:55:09;27.50;92.70
1205;DHT22;592;48.764;9.174;2023-06-19T09:57:38;28.00;93.30
1205;DHT22;592;48.764;9.174;2023-06-19T10:00:08;28.10;92.80
1205;DHT22;592;48.764;9.174;2023-06-19T10:02:39;27.70;93.30
1205;DHT22;592;48.764;9.174;2023-06-19T10:05:07;28.20;93.20
1205;DHT22;592;48.764;9.174;2023-06-19T10:07:42;27.90;93.00
1205;DHT22;592;48.764;9.174;2023-06-19T10:10:22;27.70;93.50
1205;DHT22;592;48.764;9.174;2023-06-19T10:12:49;27.70;93.20
1205;DHT22;592;48.764;9.174;2023-06-19T10:15:17;27.70;93.40
1205;DHT22;592;48.764;9.174;2023-06-19T10:17:48;27.90;93.50
1205;DHT22;592;48.764;9.174;2023-06-19T10:20:23;28.20;93.80
1205;DHT22;592;48.764;9.174;2023-06-19T10:22:58;27.70;93.50
1205;DHT22;592;48.764;9.174;2023-06-19T10:25:30;27.90;93.60
1205;DHT22;592;48.764;9.174;2023-06-19T10:27:58;27.90;92.80
1205;DHT22;592;48.764;9.174;2023-06-19T10:30:27;27.80;93.00
1205;DHT22;592;48.764;9.174;2023-06-19T10:32:55;27.70;93.00
1205;DHT22;592;48.764;9.174;2023-06-19T10:35:22;28.10;92.70
1205;DHT22;592;48.764;9.174;2023-06-19T10:37:50;28.10;92.70
1205;DHT22;592;48.764;9.174;2023-06-19T10:40:18;28.50;93.30
1205;DHT22;592;48.764;9.174;2023-06-19T10:42:46;28.20;93.10
1205;DHT22;592;48.764;9.174;2023-06-19T10:45:14;27.90;93.50
1205;DHT22;592;48.764;9.174;2023-06-19T10:47:42;28.00;93.90
1205;DHT22;592;48.764;9.174;2023-06-19T10:50:11;28.00;93.60
1205;DHT22;592;48.764;9.174;2023-06-19T10:52:41;28.30;93.60
1205;DHT22;592;48.764;9.174;2023-06-19T10:55:10;28.20;93.70
1205;DHT22;592;48.764;9.174;2023-06-19T10:57:37;28.00;93.90
1205;DHT22;592;48.764;9.174;2023-06-19T11:00:08;28.20;94.10
1205;DHT22;592;48.764;9.174;2023-06-19T11:02:39;28.00;93.90
1205;DHT22;592;48.764;9.174;2023-06-19T11:05:09;28.00;94.20
1205;DHT22;592;48.764;9.174;2023-06-19T11:07:36;27.90;94.00
1205;DHT22;592;48.764;9.174;2023-06-19T11:10:04;27.60;94.20
1205;DHT22;592;48.764;9.174;2023-06-19T11:12:31;27.50;94.60
1205;DHT22;592;48.764;9.174;2023-06-19T11:14:58;27.60;94.50
1205;DHT22;592;48.764;9.174;2023-06-19T11:17:27;27.50;94.50
1205;DHT22;592;48.764;9.174;2023-06-19T11:19:56;27.00;94.60
1205;DHT22;592;48.764;9.174;2023-06-19T11:22:36;27.80;94.50
1205;DHT22;592;48.764;9.174;2023-06-19T11:25:04;28.10;94.30
1205;DHT22;592;48.764;9.174;2023-06-19T11:27:31;28.10;94.20
1205;DHT22;592;48.764;9.174;2023-06-19T11:30:03;28.00;94.00
1205;DHT22;592;48.764;9.174;2023-06-19T11:32:34;28.00;94.20
1205;DHT22;592;48.764;9.174;2023-06-19T11:35:09;27.80;94.40
1205;DHT22;592;48.764;9.174;2023-06-19T11:37:39;27.80;94.40
1205;DHT22;592;48.764;9.174;2023-06-19T11:40:07;27.60;94.50
1205;DHT22;592;48.764;9.174;2023-06-19T11:42:45;27.60;94.60
1205;DHT22;592;48.764;9.174;2023-06-19T11:45:12;28.00;94.40
1205;DHT22;592;48.764;9.174;2023-06-19T11:47:42;28.30;94.00
1205;DHT22;592;48.764;9.174;2023-06-19T11:50:10;28.60;94.00
1205;DHT22;592;48.764;9.174;2023-06-19T11:52:38;28.80;93.40
1205;DHT22;592;48.764;9.174;2023-06-19T11:55:06;28.40;93.20
1205;DHT22;592;48.764;9.174;2023-06-19T11:58:06;27.80;93.10
1205;DHT22;592;48.764;9.174;2023-06-19T12:00:35;28.80;93.20
1205;DHT22;592;48.764;9.174;2023-06-19T12:03:04;28.80;92.80
1205;DHT22;592;48.764;9.174;2023-06-19T12:05:32;27.60;92.70
1205;DHT22;592;48.764;9.174;2023-06-19T12:07:59;28.30;93.60
1205;DHT22;592;48.764;9.174;2023-06-19T12:10:29;28.20;93.20
1205;DHT22;592;48.764;9.174;2023-06-19T12:12:56;27.80;93.00
1205;DHT22;592;48.764;9.174;2023-06-19T12:15:24;28.90;93.80
1205;DHT22;592;48.764;9.174;2023-06-19T12:17:52;28.90;94.00
1205;DHT22;592;48.764;9.174;2023-06-19T12:20:22;28.00;93.50
1205;DHT22;592;48.764;9.174;2023-06-19T12:23:13;28.20;93.70
1205;DHT22;592;48.764;9.174;2023-06-19T12:26:36;28.30;93.30
1205;DHT22;592;48.764;9.174;2023-06-19T12:29:33;28.60;93.30
1205;DHT22;592;48.764;9.174;2023-06-19T12:32:48;28.50;93.10
1205;DHT22;592;48.764;9.174;2023-06-19T12:35:15;28.70;93.00
1205;DHT22;592;48.764;9.174;2023-06-19T12:41:02;29.60;92.30
1205;DHT22;592;48.764;9.174;2023-06-19T12:44:26;28.80;92.30
1205;DHT22;592;48.764;9.174;2023-06-19T12:46:52;29.00;92.50
1205;DHT22;592;48.764;9.174;2023-06-19T12:49:21;29.30;92.90
1205;DHT22;592;48.764;9.174;2023-06-19T12:51:48;29.40;92.40
1205;DHT22;592;48.764;9.174;2023-06-19T12:54:19;29.30;92.40
1205;DHT22;592;48.764;9.174;2023-06-19T12:56:48;28.70;92.70
1205;DHT22;592;48.764;9.174;2023-06-19T12:59:15;29.20;92.60
1205;DHT22;592;48.764;9.174;2023-06-19T13:01:43;29.20;92.70
1205;DHT22;592;48.764;9.174;2023-06-19T13:04:11;28.90;92.70
1205;DHT22;592;48.764;9.174;2023-06-19T13:06:40;29.20;92.60
1205;DHT22;592;48.764;9.174;2023-06-19T13:09:07;29.00;92.70
1205;DHT22;592;48.764;9.174;2023-06-19T13:11:34;29.20;92.40
1205;DHT22;592;48.764;9.174;2023-06-19T13:14:04;29.50;92.10
1205;DHT22;592;48.764;9.174;2023-06-19T13:16:32;29.60;92.50
1205;DHT22;592;48.764;9.174;2023-06-19T13:19:00;29.50;92.00
1205;DHT22;592;48.764;9.174;2023-06-19T13:21:27;29.70;92.00
1205;DHT22;592;48.764;9.174;2023-06-19T13:23:55;29.50;91.50
1205;DHT22;592;48.764;9.174;2023-06-19T13:26:24;29.80;92.20
1205;DHT22;592;48.764;9.174;2023-06-19T13:28:51;29.90;91.90
1205;DHT22;592;48.764;9.174;2023-06-19T13:31:18;30.00;91.30
1205;DHT22;592;48.764;9.174;2023-06-19T13:33:45;30.40;91.50
1205;DHT22;592;48.764;9.174;2023-06-19T13:36:21;30.60;91.30
1205;DHT22;592;48.764;9.174;2023-06-19T13:38:52;30.50;90.60
1205;DHT22;592;48.764;9.174;2023-06-19T13:41:22;30.40;90.60
1205;DHT22;592;48.764;9.174;2023-06-19T13:43:58;30.60;91.00
1205;DHT22;592;48.764;9.174;2023-06-19T13:46:33;31.60;90.90
1205;DHT22;592;48.764;9.174;2023-06-19T13:49:01;30.50;90.30
1205;DHT22;592;48.764;9.174;2023-06-19T13:51:29;30.10;90.70
1205;DHT22;592;48.764;9.174;2023-06-19T13:53:56;29.90;90.90
1205;DHT22;592;48.764;9.174;2023-06-19T13:56:23;29.80;91.00
1205;DHT22;592;48.764;9.174;2023-06-19T13:58:50;29.70;91.30
1205;DHT22;592;48.764;9.174;2023-06-19T14:01:17;29.70;90.90
1205;DHT22;592;48.764;9.174;2023-06-19T14:03:44;29.80;90.70
1205;DHT22;592;48.764;9.174;2023-06-19T14:06:11;29.80;90.90
1205;DHT22;592;48.764;9.174;2023-06-19T14:08:39;29.90;90.90
1205;DHT22;592;48.764;9.174;2023-06-19T14:11:06;30.00;90.70
1205;DHT22;592;48.764;9.174;2023-06-19T14:13:33;30.70;91.40
1205;DHT22;592;48.764;9.174;2023-06-19T14:15:59;30.00;90.90
1205;DHT22;592;48.764;9.174;2023-06-19T14:18:27;30.00;91.00
1205;DHT22;592;48.764;9.174;2023-06-19T14:20:53;30.90;90.80
1205;DHT22;592;48.764;9.174;2023-06-19T14:23:21;30.10;90.30
1205;DHT22;592;48.764;9.174;2023-06-19T14:25:49;30.30;90.20
1205;DHT22;592;48.764;9.174;2023-06-19T14:28:15;30.30;89.60
1205;DHT22;592;48.764;9.174;2023-06-19T14:30:43;30.50;90.20
1205;DHT22;592;48.764;9.174;2023-06-19T14:33:09;30.50;90.00
1205;DHT22;592;48.764;9.174;2023-06-19T14:35:40;30.80;89.20
1205;DHT22;592;48.764;9.174;2023-06-19T14:38:08;31.50;89.50
1205;DHT22;592;48.764;9.174;2023-06-19T14:40:34;30.50;89.30
1205;DHT22;592;48.764;9.174;2023-06-19T14:43:02;30.30;89.70
1205;DHT22;592;48.764;9.174;2023-06-19T14:45:30;30.90;89.90
1205;DHT22;592;48.764;9.174;2023-06-19T14:47:57;31.50;88.70
1205;DHT22;592;48.764;9.174;2023-06-19T14:50:23;31.50;87.10
1205;DHT22;592;48.764;9.174;2023-06-19T14:52:50;31.50;87.70
1205;DHT22;592;48.764;9.174;2023-06-19T14:55:17;31.40;89.30
1205;DHT22;592;48.764;9.174;2023-06-19T14:57:44;31.70;87.60
1205;DHT22;592;48.764;9.174;2023-06-19T15:00:13;31.80;87.20
1205;DHT22;592;48.764;9.174;2023-06-19T15:02:40;31.90;88.30
1205;DHT22;592;48.764;9.174;2023-06-19T15:05:08;32.50;87.00
1205;DHT22;592;48.764;9.174;2023-06-19T15:07:34;32.80;85.80
1205;DHT22;592;48.764;9.174;2023-06-19T15:10:02;33.80;84.00
1205;DHT22;592;48.764;9.174;2023-06-19T15:12:30;33.70;83.10
1205;DHT22;592;48.764;9.174;2023-06-19T15:14:59;33.00;85.00
1205;DHT22;592;48.764;9.174;2023-06-19T15:17:28;32.30;86.20
1205;DHT22;592;48.764;9.174;2023-06-19T15:19:54;32.40;86.40
1205;DHT22;592;48.764;9.174;2023-06-19T15:22:21;31.80;87.00
1205;DHT22;592;48.764;9.174;2023-06-19T15:24:48;31.40;87.70
1205;DHT22;592;48.764;9.174;2023-06-19T15:27:15;31.30;88.20
1205;DHT22;592;48.764;9.174;2023-06-19T15:29:45;30.80;88.90
1205;DHT22;592;48.764;9.174;2023-06-19T15:32:15;30.40;90.10
1205;DHT22;592;48.764;9.174;2023-06-19T15:34:46;30.20;90.30
1205;DHT22;592;48.764;9.174;2023-06-19T15:37:19;30.20;90.60
1205;DHT22;592;48.764;9.174;2023-06-19T15:39:46;29.90;90.50
1205;DHT22;592;48.764;9.174;2023-06-19T15:42:13;30.10;90.90
1205;DHT22;592;48.764;9.174;2023-06-19T15:44:41;29.50;91.50
1205;DHT22;592;48.764;9.174;2023-06-19T15:47:08;29.50;90.90
1205;DHT22;592;48.764;9.174;2023-06-19T15:49:35;29.60;91.20
1205;DHT22;592;48.764;9.174;2023-06-19T15:52:04;29.30;91.30
1205;DHT22;592;48.764;9.174;2023-06-19T15:54:31;29.50;91.20
1205;DHT22;592;48.764;9.174;2023-06-19T15:56:58;30.00;90.90
1205;DHT22;592;48.764;9.174;2023-06-19T15:59:26;29.60;90.80
1205;DHT22;592;48.764;9.174;2023-06-19T16:01:52;29.70;90.60
1205;DHT22;592;48.764;9.174;2023-06-19T16:04:19;28.80;90.40
1205;DHT22;592;48.764;9.174;2023-06-19T16:06:46;29.50;90.80
1205;DHT22;592;48.764;9.174;2023-06-19T16:09:14;29.40;91.00
1205;DHT22;592;48.764;9.174;2023-06-19T16:11:41;29.30;91.20
1205;DHT22;592;48.764;9.174;2023-06-19T16:14:09;29.40;91.10
1205;DHT22;592;48.764;9.174;2023-06-19T16:16:36;29.50;91.10
1205;DHT22;592;48.764;9.174;2023-06-19T16:19:03;30.60;91.40
1205;DHT22;592;48.764;9.174;2023-06-19T16:21:30;30.80;91.50
1205;DHT22;592;48.764;9.174;2023-06-19T16:23:56;30.50;91.60
1205;DHT22;592;48.764;9.174;2023-06-19T16:26:27;29.30;91.30
1205;DHT22;592;48.764;9.174;2023-06-19T16:29:00;29.30;91.50